Terminal Aerodrome Forecast
Issued by NWS Charleston, WV

Current Version | Previous Version | Text Only | Print | Product List | Glossary Off
Versions: 1 2 3 4 5 6 7 8 9 10 11 12 13 14 15 16 17 18 19 20 21 22 23

318
FTUS41 KRLX 190538
TAFBKW
TAF
KBKW 190538Z 1906/2006 28012G35KT 5SM -SHRA OVC050
     FM190800 29012G30KT 6SM -SHRA BKN025
     FM191300 28014G27KT P6SM -SHRA BKN015
     FM191800 31014G24KT P6SM BKN025
     FM192300 32011G20KT P6SM BKN035=

USA.gov is the U.S. government's official web portal to all federal, state and local government web resources and services.